Galena, AK

12:27 AM AKDT on October 02, 2014 (GMT -0800)
Pitka | Change Station
CLOSE
Current Station
Airport
Location: Galena,
Elevation: 151 ft
Nearby Weather Stations

Elev 151 ft 64.74 °N, 156.94 °W | Updated 19 minutes ago

Overcast
Overcast
43 °F
Feels Like 40 °F
N
5
Wind Variable Wind from West

Today
High -- | Low -- °F
--% Chance of Precip.
Yesterday
High -- | Low -- °F
Precip. -- in
8:40 AM 7:51 PM
First Quarter, 56% visible
Pressure 30.15 in
Visibility 10.0 miles
Clouds Overcast 2900 ft
Windchill 40 °F
Dew Point 39 °F
Humidity 87%
Rainfall 0.00 in
Snow Depth Not available.
UV 0 out of 12
Pollen Not available.
Air Quality Not available.
Flu Activity Not available.
SPECI PAGA 020808Z AUTO 27004KT 10SM OVC029 06/04 A3015 RMK AO2

More Conditions Fewer Conditions

Pressure 30.15 in
Visibility 10.0 miles
Clouds Overcast 2900 ft
Windchill 40 °F
Dew Point 39 °F
Humidity 87%
Rainfall 0.00 in
Snow Depth Not available.
UV 0 out of 12
Pollen Not available.
Air Quality Not available.
Flu Activity Not available.
SPECI PAGA 020808Z AUTO 27004KT 10SM OVC029 06/04 A3015 RMK AO2

More Conditions Fewer Conditions

10-Day Weather Forecast

Almanac

Astronomy

Oct. 02, 2014 Rise Set
Actual Time 8:40 AM AKDT 7:51 PM AKDT
Civil Twilight 7:52 AM AKDT 8:39 PM AKDT
Nautical Twilight 6:54 AM AKDT 9:37 PM AKDT
Astronomical Twilight 5:52 AM AKDT 10:38 PM AKDT
Moon 5:59 PM AKDT 12:03 AM AKDT
Length of Visible Light 12h 47m
Length of Day
11h 10m
Tomorrow will be 6m 37s shorter.
First Quarter, 56% of the Moon is Illuminated
Today
First Quarter
Oct 8
Full
Oct 15
Last Quarter
Oct 23
New
Oct 30
First Quarter

Today's Extremes

State Highs State Lows

Community

WunderPhotos

Upload Photos

1,758,196 photos uploaded!

WunderBlogs® & News

By Dr. Jeff Masters
Director of Meteorology, Weather Underground
By Kari Strenfel
Meteorologist, Weather Underground
By Christopher C. Burt
Weather Historian, Weather Underground
October 2, 2014
October 2, 2014
October 2, 2014

Nearby

Snow Depth

Station Depth Elevation
Little Chena Ridge 2 in 2000 ft
Atigun Pass 102 in 4800 ft
Summit Creek 0 in 1400 ft
Susitna Valley High 2 in 375 ft
MF Bradley River 2 in 2300 ft

Earthquake Activity

City Distance Mag. Time & Date
No recent earthquake activity has been reported nearby.
Minimum magnitude displayed is 2.5.

Coastal Water Temperatures

Place Temperature
No Stations Reporting

Nearby Weather Stations